Time;durP1;ratioP1;P1;durP2;ratioP2;P2;SDS_P1;SDS_P2;PMS_P1;PMS_P2;Temp;Humidity;BMP_temperature;BMP_pressure;BME280_temperature;BME280_humidity;BME280_pressure;Samples;Min_cycle;Max_cycle;Signal;HPM_P1;HPM_P2
2022/04/03 00:00:45;;;;;;;4.88;2.25;;;;;;;;;;5034320;28;20102;-60
2022/04/03 00:03:12;;;;;;;4.78;2.05;;;;;;;;;;5034200;28;20049;-60
2022/04/03 00:05:41;;;;;;;4.57;1.98;;;;;;;;;;5049709;28;20042;-60
2022/04/03 00:08:08;;;;;;;4.78;2.17;;;;;;;;;;5034309;28;20124;-60
2022/04/03 00:10:36;;;;;;;5.97;2.22;;;;;;;;;;5050277;28;20047;-60
2022/04/03 00:13:02;;;;;;;4.18;1.98;;;;;;;;;;5053254;28;20041;-60
2022/04/03 00:15:28;;;;;;;4.57;1.65;;;;;;;;;;5067553;28;20500;-60
2022/04/03 00:17:55;;;;;;;4.13;1.83;;;;;;;;;;5051478;28;20071;-60
2022/04/03 00:20:21;;;;;;;5.57;1.70;;;;;;;;;;5052889;28;20079;-61
2022/04/03 00:22:49;;;;;;;7.43;1.83;;;;;;;;;;5064958;28;20055;-60
2022/04/03 00:25:17;;;;;;;4.07;1.92;;;;;;;;;;5052213;28;20057;-60
2022/04/03 00:27:43;;;;;;;6.25;2.60;;;;;;;;;;5052039;28;20068;-60
2022/04/03 00:30:09;;;;;;;3.85;1.85;;;;;;;;;;5051712;28;20374;-61
2022/04/03 00:32:36;;;;;;;4.72;2.00;;;;;;;;;;5052201;28;20041;-60
2022/04/03 00:35:02;;;;;;;3.65;1.80;;;;;;;;;;5052128;28;20049;-60
2022/04/03 00:37:28;;;;;;;4.03;1.85;;;;;;;;;;5053767;28;20123;-61
2022/04/03 00:39:55;;;;;;;7.25;3.15;;;;;;;;;;5067497;28;20136;-61
2022/04/03 00:42:21;;;;;;;6.50;2.33;;;;;;;;;;5052621;28;20124;-61
2022/04/03 00:44:47;;;;;;;7.90;2.20;;;;;;;;;;5052844;28;20037;-61
2022/04/03 00:47:15;;;;;;;4.13;2.00;;;;;;;;;;5052642;28;20041;-61
2022/04/03 00:49:41;;;;;;;6.53;2.13;;;;;;;;;;5053009;28;20074;-61
2022/04/03 00:52:08;;;;;;;4.47;1.83;;;;;;;;;;5052731;28;20416;-61
2022/04/03 00:54:34;;;;;;;5.75;2.08;;;;;;;;;;5048807;28;20064;-61
2022/04/03 00:57:03;;;;;;;6.88;2.40;;;;;;;;;;5046432;28;20370;-61
2022/04/03 00:59:30;;;;;;;7.93;2.00;;;;;;;;;;5064711;28;20064;-61
2022/04/03 01:01:56;;;;;;;3.95;1.77;;;;;;;;;;5071299;28;20048;-61
2022/04/03 01:04:22;;;;;;;4.32;2.15;;;;;;;;;;5052566;28;20045;-61
2022/04/03 01:06:48;;;;;;;6.40;2.30;;;;;;;;;;5068363;28;20056;-61
2022/04/03 01:09:14;;;;;;;5.20;1.90;;;;;;;;;;5052443;28;20095;-61
2022/04/03 01:11:40;;;;;;;4.97;2.42;;;;;;;;;;5051644;28;20044;-61
2022/04/03 01:14:07;;;;;;;4.85;1.92;;;;;;;;;;5067887;28;20040;-61
2022/04/03 01:16:35;;;;;;;5.68;2.28;;;;;;;;;;5052394;28;20130;-61
2022/04/03 01:19:02;;;;;;;4.65;2.40;;;;;;;;;;5033633;28;20519;-61
2022/04/03 01:21:28;;;;;;;6.55;2.50;;;;;;;;;;5052240;28;20477;-61
2022/04/03 01:23:55;;;;;;;4.47;2.10;;;;;;;;;;5052162;28;20099;-61
2022/04/03 01:26:23;;;;;;;5.05;2.28;;;;;;;;;;5049377;28;20063;-61
2022/04/03 01:28:51;;;;;;;4.30;2.20;;;;;;;;;;5065939;28;20103;-62
2022/04/03 01:31:17;;;;;;;4.68;2.45;;;;;;;;;;5067478;28;20077;-61
2022/04/03 01:33:43;;;;;;;7.93;2.10;;;;;;;;;;5050953;28;20068;-61
2022/04/03 01:36:10;;;;;;;5.80;2.42;;;;;;;;;;5033964;28;20056;-61
2022/04/03 01:38:36;;;;;;;8.15;2.63;;;;;;;;;;5051794;28;20044;-61
2022/04/03 01:41:02;;;;;;;10.13;2.33;;;;;;;;;;5035896;28;20460;-61
2022/04/03 01:43:28;;;;;;;4.10;2.15;;;;;;;;;;5051390;28;20124;-61
2022/04/03 01:45:54;;;;;;;8.25;2.90;;;;;;;;;;5051706;28;20076;-61
2022/04/03 01:48:21;;;;;;;6.32;2.53;;;;;;;;;;5033585;28;20052;-61
2022/04/03 01:50:48;;;;;;;6.97;2.85;;;;;;;;;;5033016;28;20049;-61
2022/04/03 01:53:14;;;;;;;7.57;2.60;;;;;;;;;;5067053;28;20041;-60
2022/04/03 01:55:40;;;;;;;7.10;2.70;;;;;;;;;;5051294;28;20045;-60
2022/04/03 01:58:09;;;;;;;6.93;2.60;;;;;;;;;;5051910;28;20045;-60
2022/04/03 02:00:35;;;;;;;6.22;2.92;;;;;;;;;;5030330;28;20117;-60
2022/04/03 02:03:01;;;;;;;5.47;2.58;;;;;;;;;;5047375;28;20059;-60
2022/04/03 02:05:28;;;;;;;6.28;2.67;;;;;;;;;;5049803;28;20059;-60
2022/04/03 02:07:54;;;;;;;6.20;2.83;;;;;;;;;;5051363;28;20779;-61
2022/04/03 02:10:20;;;;;;;5.97;2.95;;;;;;;;;;5050813;28;20044;-60
2022/04/03 02:12:46;;;;;;;5.88;2.60;;;;;;;;;;5065887;28;20098;-60
2022/04/03 02:15:12;;;;;;;7.75;2.47;;;;;;;;;;5031934;28;20113;-60
2022/04/03 02:17:40;;;;;;;5.03;2.47;;;;;;;;;;5051456;28;20033;-61
2022/04/03 02:20:09;;;;;;;4.25;2.15;;;;;;;;;;5051586;28;20041;-60
2022/04/03 02:22:35;;;;;;;7.68;2.05;;;;;;;;;;5050159;28;20470;-60
2022/04/03 02:25:03;;;;;;;5.88;2.63;;;;;;;;;;5050396;28;20044;-60
2022/04/03 02:27:30;;;;;;;4.85;2.15;;;;;;;;;;5049817;28;20387;-60
2022/04/03 02:29:56;;;;;;;4.88;2.40;;;;;;;;;;5050555;28;20045;-60
2022/04/03 02:32:23;;;;;;;7.55;2.10;;;;;;;;;;5063581;28;20045;-61
2022/04/03 02:34:49;;;;;;;5.88;2.30;;;;;;;;;;5051003;28;20047;-60
2022/04/03 02:37:15;;;;;;;5.28;2.08;;;;;;;;;;5050870;28;20045;-60
2022/04/03 02:39:42;;;;;;;7.22;2.75;;;;;;;;;;5032734;28;20048;-60
2022/04/03 02:42:08;;;;;;;6.13;2.55;;;;;;;;;;5050316;28;20051;-60
2022/04/03 02:44:34;;;;;;;4.07;1.77;;;;;;;;;;5050420;28;20041;-60
2022/04/03 02:47:01;;;;;;;6.20;2.40;;;;;;;;;;5050650;28;20048;-61
2022/04/03 02:49:27;;;;;;;8.23;2.92;;;;;;;;;;5033014;28;20047;-60
2022/04/03 02:51:53;;;;;;;5.50;2.13;;;;;;;;;;5049972;28;20139;-60
2022/04/03 02:54:19;;;;;;;7.25;2.38;;;;;;;;;;5050767;28;20080;-60
2022/04/03 02:56:45;;;;;;;7.18;2.40;;;;;;;;;;5050463;28;20055;-60
2022/04/03 02:59:12;;;;;;;6.70;2.13;;;;;;;;;;5049982;28;20085;-60
2022/04/03 03:01:38;;;;;;;4.75;2.58;;;;;;;;;;5050668;28;20491;-60
2022/04/03 03:04:04;;;;;;;4.10;1.63;;;;;;;;;;5050841;28;20049;-60
2022/04/03 03:06:31;;;;;;;6.22;2.70;;;;;;;;;;5050118;28;20156;-60
2022/04/03 03:08:57;;;;;;;6.88;2.25;;;;;;;;;;5061605;28;20048;-60
2022/04/03 03:11:23;;;;;;;8.68;2.67;;;;;;;;;;5047101;28;20076;-60
2022/04/03 03:13:49;;;;;;;7.13;1.98;;;;;;;;;;5046685;28;20048;-60
2022/04/03 03:16:15;;;;;;;9.38;2.38;;;;;;;;;;5050502;28;20511;-60
2022/04/03 03:18:42;;;;;;;8.38;2.72;;;;;;;;;;5050213;28;20049;-60
2022/04/03 03:21:08;;;;;;;4.32;2.00;;;;;;;;;;5050729;28;20045;-60
2022/04/03 03:23:34;;;;;;;6.00;2.33;;;;;;;;;;5052916;28;20057;-60
2022/04/03 03:26:00;;;;;;;8.15;2.85;;;;;;;;;;5069214;28;20056;-60
2022/04/03 03:28:26;;;;;;;7.78;2.70;;;;;;;;;;5054039;28;20037;-60
2022/04/03 03:30:52;;;;;;;5.78;2.38;;;;;;;;;;5054750;28;20036;-60
2022/04/03 03:33:18;;;;;;;5.32;2.45;;;;;;;;;;5052921;28;20037;-60
2022/04/03 03:35:45;;;;;;;4.85;2.10;;;;;;;;;;5052357;28;20059;-60
2022/04/03 03:38:11;;;;;;;6.55;2.50;;;;;;;;;;5054114;28;20040;-60
2022/04/03 03:40:39;;;;;;;8.05;2.83;;;;;;;;;;5048891;28;20130;-60
2022/04/03 03:43:05;;;;;;;9.05;2.50;;;;;;;;;;5053213;28;20055;-60
2022/04/03 03:45:32;;;;;;;5.75;2.63;;;;;;;;;;5053997;28;20080;-60
2022/04/03 03:47:58;;;;;;;5.00;2.60;;;;;;;;;;5053803;28;20040;-60
2022/04/03 03:50:24;;;;;;;4.28;2.35;;;;;;;;;;5039399;28;20041;-60
2022/04/03 03:52:51;;;;;;;6.18;2.10;;;;;;;;;;5054180;28;20040;-60
2022/04/03 03:55:17;;;;;;;6.75;2.13;;;;;;;;;;5068385;28;20178;-60
2022/04/03 03:57:45;;;;;;;7.20;3.00;;;;;;;;;;5054202;28;20481;-60
2022/04/03 04:00:11;;;;;;;6.60;2.38;;;;;;;;;;5035771;28;20041;-60
2022/04/03 04:02:37;;;;;;;5.72;1.92;;;;;;;;;;5034929;28;20114;-60
2022/04/03 04:05:04;;;;;;;5.07;2.30;;;;;;;;;;5054013;28;20037;-60
2022/04/03 04:07:42;;;;;;;5.57;2.30;;;;;;;;;;5052818;28;20060;-61
2022/04/03 04:10:08;;;;;;;5.35;1.60;;;;;;;;;;5052537;28;20435;-61
2022/04/03 04:12:35;;;;;;;7.60;1.48;;;;;;;;;;5064957;28;20080;-60
2022/04/03 04:15:01;;;;;;;10.55;1.75;;;;;;;;;;5051210;28;20045;-60
2022/04/03 04:17:28;;;;;;;3.65;1.58;;;;;;;;;;5052716;28;20404;-60
2022/04/03 04:19:54;;;;;;;6.25;1.70;;;;;;;;;;5052516;28;20044;-60
2022/04/03 04:22:20;;;;;;;4.60;1.35;;;;;;;;;;5053087;28;20088;-60
2022/04/03 04:24:46;;;;;;;3.85;1.70;;;;;;;;;;5052644;28;20037;-60
2022/04/03 04:27:12;;;;;;;3.85;1.70;;;;;;;;;;5053167;28;20543;-61
2022/04/03 04:29:39;;;;;;;3.05;1.52;;;;;;;;;;5053053;28;20091;-60
2022/04/03 04:32:05;;;;;;;4.07;1.60;;;;;;;;;;5052930;28;20155;-60
2022/04/03 04:34:31;;;;;;;4.82;1.35;;;;;;;;;;5063625;28;20053;-60
2022/04/03 04:36:58;;;;;;;5.38;3.00;;;;;;;;;;5032269;28;20067;-61
2022/04/03 04:39:25;;;;;;;3.25;1.63;;;;;;;;;;5033186;28;20037;-60
2022/04/03 04:41:51;;;;;;;4.40;1.65;;;;;;;;;;5032746;28;20548;-60
2022/04/03 04:44:17;;;;;;;8.95;1.90;;;;;;;;;;5014495;28;20045;-60
2022/04/03 04:46:43;;;;;;;3.88;1.63;;;;;;;;;;5033249;28;20465;-60
2022/04/03 04:49:09;;;;;;;4.05;1.58;;;;;;;;;;5033231;28;20069;-60
2022/04/03 04:51:36;;;;;;;4.38;2.30;;;;;;;;;;5029667;28;20073;-61
2022/04/03 04:54:02;;;;;;;5.53;1.75;;;;;;;;;;5032445;28;20041;-60
2022/04/03 04:56:28;;;;;;;4.43;1.60;;;;;;;;;;5032742;28;20061;-60
2022/04/03 04:58:54;;;;;;;2.47;1.08;;;;;;;;;;5032377;28;20060;-60
2022/04/03 05:01:20;;;;;;;5.93;1.60;;;;;;;;;;5033136;28;20099;-60
2022/04/03 05:03:46;;;;;;;4.65;1.77;;;;;;;;;;5032126;28;20034;-60
2022/04/03 05:06:15;;;;;;;6.03;1.30;;;;;;;;;;5032335;28;20042;-60
2022/04/03 05:08:42;;;;;;;7.00;1.55;;;;;;;;;;5028620;28;20053;-60
2022/04/03 05:11:08;;;;;;;6.78;1.58;;;;;;;;;;5031625;28;20037;-60
2022/04/03 05:13:35;;;;;;;5.40;1.10;;;;;;;;;;5032855;28;20042;-60
2022/04/03 05:16:01;;;;;;;8.23;2.00;;;;;;;;;;5062038;28;20399;-60
2022/04/03 05:18:27;;;;;;;4.75;1.30;;;;;;;;;;5029592;28;20417;-60
2022/04/03 05:20:53;;;;;;;10.13;2.65;;;;;;;;;;5030851;28;20393;-60
2022/04/03 05:23:19;;;;;;;10.52;2.58;;;;;;;;;;5032505;28;20146;-60
2022/04/03 05:25:45;;;;;;;6.93;2.30;;;;;;;;;;5031917;28;20393;-60
2022/04/03 05:28:12;;;;;;;6.07;1.45;;;;;;;;;;5029975;28;20508;-60
2022/04/03 05:30:38;;;;;;;5.80;1.30;;;;;;;;;;5030057;28;20049;-60
2022/04/03 05:33:04;;;;;;;8.70;1.30;;;;;;;;;;5029254;28;20048;-60
2022/04/03 05:35:32;;;;;;;6.07;1.50;;;;;;;;;;5046956;28;20404;-60
2022/04/03 05:37:58;;;;;;;7.40;1.27;;;;;;;;;;5063946;28;20404;-60
2022/04/03 05:40:24;;;;;;;10.90;1.60;;;;;;;;;;5051377;28;20392;-60
2022/04/03 05:42:50;;;;;;;4.88;1.30;;;;;;;;;;5052020;28;20064;-60
2022/04/03 05:45:16;;;;;;;6.75;1.38;;;;;;;;;;5051628;28;20135;-60
2022/04/03 05:47:43;;;;;;;7.45;1.25;;;;;;;;;;5033090;28;20048;-61
2022/04/03 05:50:09;;;;;;;8.68;1.67;;;;;;;;;;5052038;28;20037;-60
2022/04/03 05:52:40;;;;;;;9.90;1.50;;;;;;;;;;5052154;28;21560;-60
2022/04/03 05:55:08;;;;;;;4.53;1.50;;;;;;;;;;5050143;28;20037;-61
2022/04/03 05:57:35;;;;;;;7.90;1.50;;;;;;;;;;5050956;28;20053;-61
2022/04/03 06:00:01;;;;;;;5.93;1.20;;;;;;;;;;5062618;28;20045;-61
2022/04/03 06:02:27;;;;;;;5.28;1.27;;;;;;;;;;5049776;28;20040;-60
2022/04/03 06:04:53;;;;;;;7.70;1.55;;;;;;;;;;5049332;28;20044;-61
2022/04/03 06:07:19;;;;;;;6.40;2.80;;;;;;;;;;5035517;28;20106;-61
2022/04/03 06:09:46;;;;;;;8.88;1.90;;;;;;;;;;5052380;28;20434;-61
2022/04/03 06:12:12;;;;;;;9.13;2.83;;;;;;;;;;5052011;28;20459;-61
2022/04/03 06:14:38;;;;;;;12.55;2.97;;;;;;;;;;5051391;28;20387;-61
2022/04/03 06:17:04;;;;;;;11.23;2.88;;;;;;;;;;5052563;28;20340;-61
2022/04/03 06:19:30;;;;;;;8.15;2.28;;;;;;;;;;5053762;28;20056;-61
2022/04/03 06:21:56;;;;;;;10.88;1.92;;;;;;;;;;5055721;28;20060;-61
2022/04/03 06:24:22;;;;;;;5.18;2.13;;;;;;;;;;5051911;28;20052;-61
2022/04/03 06:26:49;;;;;;;5.70;1.70;;;;;;;;;;5036539;28;20044;-61
2022/04/03 06:29:15;;;;;;;10.23;2.00;;;;;;;;;;5051338;28;20124;-61
2022/04/03 06:31:41;;;;;;;6.90;2.15;;;;;;;;;;5051435;28;20060;-60
2022/04/03 06:34:07;;;;;;;6.88;2.15;;;;;;;;;;5030554;28;20064;-61
2022/04/03 06:36:33;;;;;;;5.38;1.38;;;;;;;;;;5030410;28;20045;-61
2022/04/03 06:39:00;;;;;;;7.53;2.03;;;;;;;;;;5031022;28;20050;-61
2022/04/03 06:41:26;;;;;;;6.53;1.77;;;;;;;;;;5032383;28;20041;-61
2022/04/03 06:43:52;;;;;;;7.28;2.42;;;;;;;;;;5031960;28;20068;-61
2022/04/03 06:46:18;;;;;;;6.30;2.28;;;;;;;;;;5033575;28;20456;-61
2022/04/03 06:48:45;;;;;;;7.63;2.25;;;;;;;;;;5031109;28;20115;-61
2022/04/03 06:51:11;;;;;;;6.30;2.00;;;;;;;;;;5032885;28;20041;-61
2022/04/03 06:53:37;;;;;;;3.30;1.33;;;;;;;;;;5030309;28;20056;-61
2022/04/03 06:56:03;;;;;;;7.78;1.55;;;;;;;;;;5064415;28;20059;-61
2022/04/03 06:58:29;;;;;;;8.50;1.70;;;;;;;;;;5031550;28;20041;-61
2022/04/03 07:00:56;;;;;;;4.60;1.77;;;;;;;;;;5038725;28;20045;-61
2022/04/03 07:03:22;;;;;;;8.30;1.77;;;;;;;;;;5033675;28;20045;-61
2022/04/03 07:05:48;;;;;;;6.82;3.05;;;;;;;;;;5034252;28;20042;-62
2022/04/03 07:08:15;;;;;;;7.50;1.80;;;;;;;;;;5034844;28;20048;-61
2022/04/03 07:10:41;;;;;;;5.28;2.40;;;;;;;;;;5030369;28;20481;-61
2022/04/03 07:13:07;;;;;;;10.10;1.50;;;;;;;;;;5030131;28;20505;-62
2022/04/03 07:15:33;;;;;;;5.47;1.33;;;;;;;;;;5033903;28;20042;-61
2022/04/03 07:17:59;;;;;;;5.10;1.50;;;;;;;;;;5019050;28;20481;-62
2022/04/03 07:20:25;;;;;;;9.80;1.50;;;;;;;;;;5034262;28;20044;-61
2022/04/03 07:22:52;;;;;;;5.80;1.27;;;;;;;;;;5029813;28;20087;-61
2022/04/03 07:25:18;;;;;;;7.90;1.20;;;;;;;;;;5062192;28;20037;-61
2022/04/03 07:27:44;;;;;;;6.82;1.10;;;;;;;;;;5031646;28;20053;-62
2022/04/03 07:30:12;;;;;;;6.25;1.15;;;;;;;;;;5031812;28;20072;-61
2022/04/03 07:32:38;;;;;;;5.82;1.05;;;;;;;;;;5028644;28;20119;-62
2022/04/03 07:35:05;;;;;;;6.65;1.15;;;;;;;;;;5047920;28;20420;-63
2022/04/03 07:37:32;;;;;;;3.63;1.17;;;;;;;;;;5052449;28;20064;-60
2022/04/03 07:39:58;;;;;;;3.53;1.08;;;;;;;;;;5047747;28;20068;-75
2022/04/03 07:42:25;;;;;;;5.55;1.45;;;;;;;;;;5068621;28;20473;-61
2022/04/03 07:44:51;;;;;;;2.67;0.90;;;;;;;;;;5050457;28;20073;-61
2022/04/03 07:47:17;;;;;;;3.80;0.70;;;;;;;;;;5049951;28;20041;-61
2022/04/03 07:49:44;;;;;;;4.95;1.02;;;;;;;;;;5050252;28;20561;-61
2022/04/03 07:52:10;;;;;;;6.20;1.25;;;;;;;;;;5050403;28;20043;-61
2022/04/03 07:54:38;;;;;;;5.35;1.15;;;;;;;;;;5049669;28;20045;-61
2022/04/03 07:57:06;;;;;;;4.60;1.00;;;;;;;;;;5050564;28;20044;-61
2022/04/03 07:59:32;;;;;;;11.10;1.20;;;;;;;;;;5043224;28;20354;-62
2022/04/03 08:01:58;;;;;;;1.73;0.80;;;;;;;;;;5027725;28;20141;-62
2022/04/03 08:04:25;;;;;;;2.78;0.85;;;;;;;;;;5049273;28;20049;-62
2022/04/03 08:06:51;;;;;;;4.38;0.70;;;;;;;;;;5025286;28;20380;-62
2022/04/03 08:09:17;;;;;;;2.67;0.70;;;;;;;;;;5042342;28;20049;-61
2022/04/03 08:11:44;;;;;;;3.05;0.90;;;;;;;;;;5061177;28;20045;-61
2022/04/03 08:14:10;;;;;;;2.25;0.70;;;;;;;;;;5046205;28;20041;-62
2022/04/03 08:16:36;;;;;;;5.57;0.85;;;;;;;;;;5053299;28;20048;-62
2022/04/03 08:19:03;;;;;;;4.22;0.80;;;;;;;;;;5035505;28;20097;-61
2022/04/03 08:21:30;;;;;;;3.65;1.08;;;;;;;;;;5050429;28;20072;-62
2022/04/03 08:23:57;;;;;;;9.02;1.00;;;;;;;;;;5067068;28;20045;-61
2022/04/03 08:26:26;;;;;;;17.00;3.28;;;;;;;;;;5033255;28;20037;-62
2022/04/03 08:28:54;;;;;;;4.13;1.10;;;;;;;;;;5052764;28;20041;-63
2022/04/03 08:31:23;;;;;;;6.05;1.00;;;;;;;;;;5052988;28;20041;-63
2022/04/03 08:33:50;;;;;;;4.22;1.00;;;;;;;;;;5053321;28;20047;-63
2022/04/03 08:36:17;;;;;;;2.97;1.00;;;;;;;;;;5030088;28;20049;-62
2022/04/03 08:38:44;;;;;;;3.50;1.10;;;;;;;;;;5046033;28;20045;-62
2022/04/03 08:41:11;;;;;;;6.65;1.20;;;;;;;;;;5044015;28;20041;-62
2022/04/03 08:43:40;;;;;;;3.60;1.02;;;;;;;;;;5028412;28;20102;-62
2022/04/03 08:46:10;;;;;;;3.53;1.23;;;;;;;;;;5047066;28;20404;-62
2022/04/03 08:48:37;;;;;;;3.70;1.10;;;;;;;;;;5046841;28;20545;-63
2022/04/03 08:51:04;;;;;;;4.43;1.30;;;;;;;;;;5047254;28;20124;-63
2022/04/03 08:53:32;;;;;;;2.55;1.02;;;;;;;;;;5050148;28;20463;-62
2022/04/03 08:55:59;;;;;;;4.63;1.10;;;;;;;;;;5033884;28;20130;-62
2022/04/03 08:58:25;;;;;;;7.65;1.15;;;;;;;;;;5065465;28;20049;-62
2022/04/03 09:00:52;;;;;;;3.08;0.95;;;;;;;;;;5054840;28;20051;-63
2022/04/03 09:03:18;;;;;;;3.35;0.90;;;;;;;;;;5052292;28;20493;-62
2022/04/03 09:05:44;;;;;;;3.00;1.10;;;;;;;;;;5043642;28;20102;-62
2022/04/03 09:08:11;;;;;;;2.60;0.80;;;;;;;;;;5053291;28;20103;-62
2022/04/03 09:10:38;;;;;;;3.30;0.90;;;;;;;;;;5047022;28;20034;-61
2022/04/03 09:13:04;;;;;;;4.40;1.10;;;;;;;;;;5018615;28;20042;-62
2022/04/03 09:15:31;;;;;;;4.20;1.08;;;;;;;;;;5055590;28;20072;-62
2022/04/03 09:17:58;;;;;;;3.92;1.40;;;;;;;;;;5025729;28;20041;-62
2022/04/03 09:20:24;;;;;;;4.85;1.65;;;;;;;;;;5048984;28;20052;-62
2022/04/03 09:22:53;;;;;;;1.45;0.80;;;;;;;;;;5029577;28;20124;-62
2022/04/03 09:25:27;;;;;;;5.07;1.00;;;;;;;;;;5042435;28;20057;-62
2022/04/03 09:27:53;;;;;;;;;;;;;;;;;;5042921;28;20412;-62
2022/04/03 09:30:20;;;;;;;3.13;1.02;;;;;;;;;;5042938;28;20366;-61
2022/04/03 09:32:48;;;;;;;3.92;1.15;;;;;;;;;;5044263;28;20125;-62
2022/04/03 09:35:14;;;;;;;4.47;1.60;;;;;;;;;;5062989;28;20056;-62
2022/04/03 09:38:00;;;;;;;6.45;1.55;;;;;;;;;;5046243;28;20041;-61
2022/04/03 09:40:30;;;;;;;3.63;1.10;;;;;;;;;;5066870;28;20556;-62
2022/04/03 09:43:12;;;;;;;4.70;1.00;;;;;;;;;;5048429;28;20053;-62
2022/04/03 09:45:58;;;;;;;5.18;1.10;;;;;;;;;;5060008;28;20068;-62
2022/04/03 09:48:25;;;;;;;3.22;1.00;;;;;;;;;;5056084;28;20033;-63
2022/04/03 09:51:00;;;;;;;11.15;1.10;;;;;;;;;;5053693;28;20037;-62
2022/04/03 09:53:28;;;;;;;5.30;0.90;;;;;;;;;;5050959;28;20091;-62
2022/04/03 09:55:54;;;;;;;4.15;1.00;;;;;;;;;;5066400;28;20043;-62
2022/04/03 09:58:22;;;;;;;7.03;0.80;;;;;;;;;;5054424;28;20076;-62
2022/04/03 10:00:48;;;;;;;3.90;1.10;;;;;;;;;;5048801;28;20040;-63
2022/04/03 10:03:14;;;;;;;4.78;1.08;;;;;;;;;;5053242;28;20040;-61
2022/04/03 10:05:42;;;;;;;4.53;0.98;;;;;;;;;;5033613;28;20370;-62
2022/04/03 10:08:08;;;;;;;4.05;0.98;;;;;;;;;;5034955;28;20396;-63
2022/04/03 10:10:35;;;;;;;4.13;1.20;;;;;;;;;;5053232;28;20072;-62
2022/04/03 10:13:01;;;;;;;2.80;0.80;;;;;;;;;;5054680;28;20045;-62
2022/04/03 10:15:28;;;;;;;7.68;0.98;;;;;;;;;;5049033;28;20047;-62
2022/04/03 10:17:55;;;;;;;2.83;0.90;;;;;;;;;;5050998;28;20154;-62
2022/04/03 10:20:29;;;;;;;5.28;0.82;;;;;;;;;;5065506;28;20099;-62
2022/04/03 10:22:57;;;;;;;3.03;0.73;;;;;;;;;;5051892;28;20135;-62
2022/04/03 10:25:27;;;;;;;5.70;0.70;;;;;;;;;;5031984;28;21486;-62
2022/04/03 10:27:55;;;;;;;4.53;0.90;;;;;;;;;;5066557;28;20060;-62
2022/04/03 10:30:33;;;;;;;3.80;1.05;;;;;;;;;;5034473;28;20041;-62
2022/04/03 10:33:00;;;;;;;5.20;0.90;;;;;;;;;;5050929;28;20041;-62
2022/04/03 10:35:26;;;;;;;4.03;1.25;;;;;;;;;;5049105;28;20041;-62
2022/04/03 10:38:00;;;;;;;6.03;1.02;;;;;;;;;;5051949;28;20049;-63
2022/04/03 10:40:29;;;;;;;6.03;1.00;;;;;;;;;;5051360;28;20065;-62
2022/04/03 10:43:01;;;;;;;3.70;0.70;;;;;;;;;;5066153;28;20045;-62
2022/04/03 10:45:35;;;;;;;1.73;0.70;;;;;;;;;;5066399;28;20044;-62
2022/04/03 10:48:21;;;;;;;3.60;1.10;;;;;;;;;;5050094;28;20045;-63
2022/04/03 10:50:59;;;;;;;5.28;0.73;;;;;;;;;;5053946;28;20045;-62
2022/04/03 10:53:31;;;;;;;3.72;0.88;;;;;;;;;;5050575;28;20330;-62
2022/04/03 10:55:58;;;;;;;4.10;0.90;;;;;;;;;;5048556;28;20041;-62
2022/04/03 10:58:25;;;;;;;3.08;0.90;;;;;;;;;;5049773;28;20112;-62
2022/04/03 11:00:52;;;;;;;5.63;0.88;;;;;;;;;;5048719;28;20073;-62
2022/04/03 11:03:18;;;;;;;3.25;0.70;;;;;;;;;;5046590;28;20037;-62
2022/04/03 11:05:46;;;;;;;3.00;0.75;;;;;;;;;;5050547;28;20040;-62
2022/04/03 11:08:12;;;;;;;3.72;0.90;;;;;;;;;;5048114;28;20049;-62
2022/04/03 11:10:48;;;;;;;4.20;0.85;;;;;;;;;;5049804;28;20091;-62
2022/04/03 11:13:15;;;;;;;1.95;0.68;;;;;;;;;;5050071;28;20437;-62
2022/04/03 11:15:45;;;;;;;3.45;0.68;;;;;;;;;;5032252;28;20510;-62
2022/04/03 11:18:27;;;;;;;4.07;0.77;;;;;;;;;;5031185;28;20049;-62
2022/04/03 11:21:08;;;;;;;7.35;0.90;;;;;;;;;;5048832;28;20045;-63
2022/04/03 11:23:36;;;;;;;4.20;0.80;;;;;;;;;;5050753;28;20063;-63
2022/04/03 11:26:03;;;;;;;2.65;0.70;;;;;;;;;;5048722;28;20120;-63
2022/04/03 11:28:31;;;;;;;4.68;0.82;;;;;;;;;;5047080;28;20478;-63
2022/04/03 11:30:57;;;;;;;3.05;0.80;;;;;;;;;;5045497;28;20487;-63
2022/04/03 11:33:23;;;;;;;4.45;0.80;;;;;;;;;;5045824;28;20049;-63
2022/04/03 11:35:49;;;;;;;3.35;0.98;;;;;;;;;;5046063;28;20056;-63
2022/04/03 11:38:17;;;;;;;2.80;0.73;;;;;;;;;;5045068;28;20064;-63
2022/04/03 11:40:44;;;;;;;3.38;0.70;;;;;;;;;;5050741;28;20060;-63
2022/04/03 11:43:11;;;;;;;5.60;0.88;;;;;;;;;;5048813;28;20044;-63
2022/04/03 11:45:38;;;;;;;3.33;1.23;;;;;;;;;;5054424;28;20399;-62
2022/04/03 11:48:14;;;;;;;3.08;0.68;;;;;;;;;;5059271;28;20040;-64
2022/04/03 11:50:40;;;;;;;3.47;0.85;;;;;;;;;;5036864;28;20036;-63
2022/04/03 11:53:08;;;;;;;2.53;0.80;;;;;;;;;;5056634;28;20091;-62
2022/04/03 11:55:35;;;;;;;2.90;0.80;;;;;;;;;;5052268;28;20040;-63
2022/04/03 11:58:04;;;;;;;2.38;0.70;;;;;;;;;;5054008;28;20094;-62
2022/04/03 12:00:32;;;;;;;3.35;0.82;;;;;;;;;;5052880;28;20052;-62
2022/04/03 12:02:58;;;;;;;2.40;0.70;;;;;;;;;;5054050;28;20041;-62
2022/04/03 12:05:25;;;;;;;2.05;0.60;;;;;;;;;;5053690;28;20036;-61
2022/04/03 12:07:52;;;;;;;3.58;0.70;;;;;;;;;;5052708;28;20048;-61
2022/04/03 12:10:26;;;;;;;2.85;0.73;;;;;;;;;;5053665;28;20425;-61
2022/04/03 12:12:54;;;;;;;3.75;0.70;;;;;;;;;;5050912;28;20041;-62
2022/04/03 12:15:22;;;;;;;5.85;0.80;;;;;;;;;;5052996;28;20041;-61
2022/04/03 12:17:55;;;;;;;3.22;0.60;;;;;;;;;;5053404;28;20148;-61
2022/04/03 12:20:21;;;;;;;3.30;0.85;;;;;;;;;;5050313;28;20076;-62
2022/04/03 12:22:51;;;;;;;2.95;0.63;;;;;;;;;;5068499;28;20119;-62
2022/04/03 12:25:17;;;;;;;6.28;0.80;;;;;;;;;;5053398;28;20033;-62
2022/04/03 12:27:43;;;;;;;2.83;0.85;;;;;;;;;;5067792;28;20040;-62
2022/04/03 12:30:10;;;;;;;5.47;1.00;;;;;;;;;;5065699;28;20044;-62
2022/04/03 12:32:37;;;;;;;4.60;1.05;;;;;;;;;;5055081;28;20507;-62
2022/04/03 12:35:06;;;;;;;4.25;0.68;;;;;;;;;;5051069;28;20057;-61
2022/04/03 12:37:33;;;;;;;4.65;0.90;;;;;;;;;;5051463;28;20575;-63
2022/04/03 12:40:00;;;;;;;3.95;0.60;;;;;;;;;;5055131;28;20128;-61
2022/04/03 12:42:27;;;;;;;4.25;0.77;;;;;;;;;;5052864;28;20334;-61
2022/04/03 12:44:54;;;;;;;4.32;1.00;;;;;;;;;;5037235;28;20052;-61
2022/04/03 12:47:28;;;;;;;3.10;0.80;;;;;;;;;;5068626;28;20044;-62
2022/04/03 12:50:06;;;;;;;3.90;0.98;;;;;;;;;;5056150;28;20145;-62
2022/04/03 12:52:51;;;;;;;6.32;1.00;;;;;;;;;;5053320;28;20124;-61
2022/04/03 12:55:21;;;;;;;3.58;0.90;;;;;;;;;;5055502;28;20354;-62
2022/04/03 13:00:33;;;;;;;2.25;0.70;;;;;;;;;;5052126;28;20067;-65
2022/04/03 13:03:00;;;;;;;3.60;1.17;;;;;;;;;;5066316;28;20577;-63
2022/04/03 13:05:32;;;;;;;2.00;0.60;;;;;;;;;;5067248;28;20128;-63
2022/04/03 13:08:08;;;;;;;4.07;0.80;;;;;;;;;;5034420;28;20087;-63
2022/04/03 13:10:35;;;;;;;4.07;0.68;;;;;;;;;;5067900;28;20125;-67
2022/04/03 13:13:01;;;;;;;4.05;0.88;;;;;;;;;;5046297;28;20076;-63
2022/04/03 13:15:27;;;;;;;1.92;0.60;;;;;;;;;;5032357;28;20492;-62
2022/04/03 13:17:53;;;;;;;4.15;0.70;;;;;;;;;;5050643;28;20044;-62
2022/04/03 13:20:19;;;;;;;5.47;1.20;;;;;;;;;;5051143;28;20033;-63
2022/04/03 13:22:49;;;;;;;2.75;0.80;;;;;;;;;;5052002;28;20453;-62
2022/04/03 13:25:17;;;;;;;4.82;0.80;;;;;;;;;;5052054;28;20083;-62
2022/04/03 13:27:43;;;;;;;3.63;0.90;;;;;;;;;;5066909;28;20462;-62
2022/04/03 13:30:09;;;;;;;2.78;0.80;;;;;;;;;;5058482;28;20058;-62
2022/04/03 13:32:37;;;;;;;1.80;0.43;;;;;;;;;;5066839;28;20052;-62
2022/04/03 13:35:03;;;;;;;3.92;0.70;;;;;;;;;;5055795;28;20192;-62
2022/04/03 13:37:29;;;;;;;1.92;0.57;;;;;;;;;;5069789;28;20049;-63
2022/04/03 13:39:55;;;;;;;3.05;0.85;;;;;;;;;;5043499;28;20044;-62
2022/04/03 13:42:22;;;;;;;3.70;0.70;;;;;;;;;;5048130;28;20037;-62
2022/04/03 13:44:48;;;;;;;3.92;1.00;;;;;;;;;;5051228;28;20380;-63
2022/04/03 13:47:14;;;;;;;3.90;0.80;;;;;;;;;;5050981;28;20040;-62
2022/04/03 13:49:40;;;;;;;2.67;1.00;;;;;;;;;;5051891;28;20041;-63
2022/04/03 13:52:07;;;;;;;3.75;0.70;;;;;;;;;;5065598;28;20040;-63
2022/04/03 13:54:33;;;;;;;3.63;0.80;;;;;;;;;;5051788;28;20067;-62
2022/04/03 13:56:59;;;;;;;5.35;0.80;;;;;;;;;;5037622;28;20052;-63
2022/04/03 13:59:25;;;;;;;1.60;0.80;;;;;;;;;;5050180;28;20495;-67
2022/04/03 14:01:52;;;;;;;3.42;0.90;;;;;;;;;;5066888;28;20037;-64
2022/04/03 14:04:19;;;;;;;3.08;0.77;;;;;;;;;;5051910;28;20098;-62
2022/04/03 14:06:45;;;;;;;2.58;0.70;;;;;;;;;;5050730;28;20048;-63
2022/04/03 14:09:11;;;;;;;4.05;1.00;;;;;;;;;;5051260;28;20067;-63
2022/04/03 14:11:37;;;;;;;6.05;0.88;;;;;;;;;;5051899;28;20405;-63
2022/04/03 14:14:04;;;;;;;2.75;0.90;;;;;;;;;;5050738;28;20071;-63
2022/04/03 14:16:30;;;;;;;4.72;0.90;;;;;;;;;;5051588;28;20116;-63
2022/04/03 14:18:56;;;;;;;1.80;0.80;;;;;;;;;;5067368;28;20045;-63
2022/04/03 14:21:27;;;;;;;3.50;1.10;;;;;;;;;;5050908;28;20102;-63
2022/04/03 14:23:53;;;;;;;3.83;1.08;;;;;;;;;;5033574;28;20045;-62
2022/04/03 14:26:20;;;;;;;3.03;0.80;;;;;;;;;;5066345;28;20457;-69
2022/04/03 14:28:46;;;;;;;2.20;0.95;;;;;;;;;;5065666;28;20079;-62
2022/04/03 14:31:12;;;;;;;3.60;0.90;;;;;;;;;;5051359;28;20052;-63
2022/04/03 14:33:38;;;;;;;3.92;1.27;;;;;;;;;;5032088;28;20148;-62
2022/04/03 14:36:06;;;;;;;2.47;0.77;;;;;;;;;;5050783;28;20457;-62
2022/04/03 14:38:32;;;;;;;4.10;0.85;;;;;;;;;;5050699;28;20041;-61
2022/04/03 14:40:58;;;;;;;3.90;1.05;;;;;;;;;;5048765;28;20052;-62
2022/04/03 14:43:24;;;;;;;2.92;1.00;;;;;;;;;;5047545;28;20048;-62
2022/04/03 14:45:51;;;;;;;4.72;0.80;;;;;;;;;;5048704;28;20408;-62